createdAt,value
2017-12-20T00:00:45.123Z,12.23
2017-12-20T00:03:16.243Z,13.40
2017-12-20T00:05:43.903Z,11.73
2017-12-20T00:08:11.460Z,13.33
2017-12-20T00:10:38.927Z,14.13
2017-12-20T00:13:09.207Z,12.30
2017-12-20T00:15:36.674Z,13.37
2017-12-20T00:18:04.182Z,12.40
2017-12-20T00:20:33.549Z,12.20
2017-12-20T00:23:01.741Z,13.10
2017-12-20T00:25:29.211Z,12.97
2017-12-20T00:28:01.087Z,11.73
2017-12-20T00:30:29.314Z,14.20
2017-12-20T00:32:56.773Z,11.30
2017-12-20T00:35:24.915Z,12.50
2017-12-20T00:37:55.091Z,9.90
2017-12-20T00:40:22.595Z,14.27
2017-12-20T00:42:51.684Z,13.20
2017-12-20T00:45:19.143Z,11.80
2017-12-20T00:47:49.304Z,13.20
2017-12-20T00:50:16.771Z,9.10
2017-12-20T00:52:44.234Z,11.07
2017-12-20T00:55:11.703Z,12.27
2017-12-20T00:57:39.988Z,12.20
2017-12-20T01:00:07.457Z,12.40
2017-12-20T01:02:35.125Z,12.00
2017-12-20T01:05:02.587Z,12.00
2017-12-20T01:07:30.235Z,10.53
2017-12-20T01:09:57.694Z,11.37
2017-12-20T01:12:26.010Z,9.50
2017-12-20T01:14:53.555Z,11.00
2017-12-20T01:17:21.838Z,11.13
2017-12-20T01:19:49.295Z,8.20
2017-12-20T01:22:16.859Z,10.43
2017-12-20T01:24:44.315Z,9.67
2017-12-20T01:27:11.783Z,9.40
2017-12-20T01:29:39.283Z,9.93
2017-12-20T01:32:06.752Z,8.20
2017-12-20T01:34:34.324Z,9.13
2017-12-20T01:37:02.491Z,8.77
2017-12-20T01:39:29.944Z,8.83
2017-12-20T01:41:58.119Z,8.50
2017-12-20T01:44:25.575Z,9.57
2017-12-20T01:46:53.651Z,8.07
2017-12-20T01:49:21.115Z,10.33
2017-12-20T01:51:48.719Z,7.57
2017-12-20T01:54:16.179Z,8.77
2017-12-20T01:56:46.687Z,9.63
2017-12-20T01:59:14.297Z,10.30
2017-12-20T02:01:41.856Z,9.00
2017-12-20T02:04:09.310Z,9.07
2017-12-20T02:06:36.780Z,10.67
2017-12-20T02:09:04.231Z,9.63
2017-12-20T02:11:31.706Z,7.40
2017-12-20T02:14:00.080Z,7.60
2017-12-20T02:16:27.607Z,7.17
2017-12-20T02:18:55.843Z,7.43
2017-12-20T02:21:23.919Z,6.90
2017-12-20T02:23:51.481Z,7.20
2017-12-20T02:26:18.955Z,6.60
2017-12-20T02:28:47.120Z,6.43
2017-12-20T02:31:14.587Z,7.37
2017-12-20T02:33:42.042Z,7.47
2017-12-20T02:36:09.512Z,7.43
2017-12-20T02:38:38.326Z,8.40
2017-12-20T02:41:13.976Z,6.17
2017-12-20T02:43:44.837Z,6.03
2017-12-20T02:46:13.170Z,6.00
2017-12-20T02:48:40.636Z,6.73
2017-12-20T02:51:08.110Z,9.57
2017-12-20T02:53:35.569Z,7.30
2017-12-20T02:56:03.059Z,8.37
2017-12-20T02:58:30.516Z,7.03
2017-12-20T03:00:57.993Z,7.37
2017-12-20T03:03:26.407Z,7.33
2017-12-20T03:05:54.138Z,6.40
2017-12-20T03:08:22.457Z,7.20
2017-12-20T03:10:49.921Z,6.03
2017-12-20T03:13:17.380Z,5.73
2017-12-20T03:15:44.891Z,6.30
2017-12-20T03:18:13.112Z,7.13
2017-12-20T03:20:40.627Z,6.17
2017-12-20T03:23:08.863Z,6.80
2017-12-20T03:25:36.324Z,5.30
2017-12-20T03:28:03.796Z,6.57
2017-12-20T03:30:31.243Z,6.23
2017-12-20T03:32:58.715Z,6.93
2017-12-20T03:35:26.273Z,6.10
2017-12-20T03:37:54.539Z,5.43
2017-12-20T03:40:22.869Z,6.80
2017-12-20T03:42:50.327Z,5.40
2017-12-20T03:45:21.177Z,6.57
2017-12-20T03:47:49.642Z,6.13
2017-12-20T03:50:17.093Z,6.67
2017-12-20T03:52:44.568Z,4.70
2017-12-20T03:55:12.027Z,6.17
2017-12-20T03:57:39.622Z,4.97
2017-12-20T04:00:07.071Z,6.33
2017-12-20T04:02:35.563Z,5.43
2017-12-20T04:05:03.027Z,6.40
2017-12-20T04:07:30.488Z,5.17
2017-12-20T04:10:01.571Z,5.93
2017-12-20T04:12:29.056Z,4.93
2017-12-20T04:14:59.290Z,6.07
2017-12-20T04:17:26.843Z,5.07
2017-12-20T04:19:54.308Z,6.20
2017-12-20T04:22:22.924Z,6.10
2017-12-20T04:24:51.243Z,7.53
2017-12-20T04:27:18.712Z,8.40
2017-12-20T04:29:46.173Z,7.40
2017-12-20T04:32:13.703Z,6.50
2017-12-20T04:34:41.163Z,6.07
2017-12-20T04:37:11.315Z,7.40
2017-12-20T04:39:38.783Z,8.37
2017-12-20T04:42:06.357Z,8.97
2017-12-20T04:44:34.474Z,7.67
2017-12-20T04:47:08.675Z,8.57
2017-12-20T04:49:36.176Z,8.07
2017-12-20T04:52:03.746Z,8.20
2017-12-20T04:54:31.199Z,6.93
2017-12-20T04:56:59.924Z,6.23
2017-12-20T04:59:28.288Z,5.07
2017-12-20T05:01:56.792Z,5.90
2017-12-20T05:04:24.243Z,5.50
2017-12-20T05:06:52.722Z,5.33
2017-12-20T05:09:20.951Z,5.33
2017-12-20T05:11:48.431Z,5.63
2017-12-20T05:14:17.988Z,4.87
2017-12-20T05:16:46.181Z,6.20
2017-12-20T05:19:13.644Z,5.47
2017-12-20T05:21:41.120Z,4.90
2017-12-20T05:24:09.283Z,5.63
2017-12-20T05:26:36.747Z,4.97
2017-12-20T05:29:04.256Z,4.90
2017-12-20T05:31:32.568Z,5.63
2017-12-20T05:34:01.002Z,5.40
2017-12-20T05:36:29.288Z,5.47
2017-12-20T05:38:59.551Z,6.00
2017-12-20T05:41:27.072Z,5.70
2017-12-20T05:43:54.523Z,6.87
2017-12-20T05:46:22.896Z,4.33
2017-12-20T05:48:50.360Z,7.13
2017-12-20T05:51:17.828Z,5.97
2017-12-20T05:53:46.167Z,5.20
2017-12-20T05:56:13.644Z,5.03
2017-12-20T05:58:41.120Z,5.37
2017-12-20T06:01:11.969Z,5.60
2017-12-20T06:03:40.104Z,5.70
2017-12-20T06:06:08.192Z,5.03
2017-12-20T06:08:36.193Z,5.50
2017-12-20T06:11:03.647Z,6.63
2017-12-20T06:13:31.144Z,7.00
2017-12-20T06:16:00.152Z,6.93
2017-12-20T06:18:27.624Z,7.57
2017-12-20T06:20:55.079Z,6.27
2017-12-20T06:23:22.604Z,7.50
2017-12-20T06:25:50.832Z,6.80
2017-12-20T06:28:18.400Z,7.37
2017-12-20T06:30:45.852Z,7.17
2017-12-20T06:33:13.348Z,6.50
2017-12-20T06:35:41.960Z,7.37
2017-12-20T06:38:16.465Z,7.03
2017-12-20T06:40:43.919Z,7.70
2017-12-20T06:43:12.155Z,7.57
2017-12-20T06:45:42.342Z,6.80
2017-12-20T06:48:09.807Z,7.33
2017-12-20T06:50:37.935Z,6.83
2017-12-20T06:53:06.171Z,7.97
2017-12-20T06:55:33.641Z,7.83
2017-12-20T06:58:01.154Z,6.80
2017-12-20T07:00:28.680Z,7.17
2017-12-20T07:02:56.985Z,7.47
2017-12-20T07:05:24.439Z,7.60
2017-12-20T07:07:51.911Z,7.00
2017-12-20T07:10:19.371Z,7.53
2017-12-20T07:12:46.843Z,6.50
2017-12-20T07:15:15.330Z,9.00
2017-12-20T07:17:42.793Z,7.77
2017-12-20T07:20:10.464Z,7.83
2017-12-20T07:22:37.940Z,8.37
2017-12-20T07:25:06.995Z,8.10
2017-12-20T07:27:34.463Z,7.37
2017-12-20T07:30:01.948Z,9.60
2017-12-20T07:32:30.261Z,8.80
2017-12-20T07:34:57.713Z,8.27
2017-12-20T07:37:25.183Z,10.27
2017-12-20T07:39:52.650Z,8.50
2017-12-20T07:42:20.122Z,8.27
2017-12-20T07:44:47.572Z,7.67
2017-12-20T07:47:15.040Z,8.90
2017-12-20T07:49:42.500Z,7.07
2017-12-20T07:52:09.971Z,7.67
2017-12-20T07:54:37.424Z,9.97
2017-12-20T07:57:04.903Z,9.20
2017-12-20T07:59:33.119Z,7.97
2017-12-20T08:02:00.660Z,8.43
2017-12-20T08:04:28.107Z,8.80
2017-12-20T08:06:55.571Z,8.67
2017-12-20T08:09:23.816Z,8.30
2017-12-20T08:11:52.040Z,6.73
2017-12-20T08:14:19.514Z,7.50
2017-12-20T08:16:46.967Z,9.00
2017-12-20T08:19:14.435Z,8.80
2017-12-20T08:21:41.908Z,6.97
2017-12-20T08:24:09.400Z,8.77
2017-12-20T08:26:36.865Z,7.73
2017-12-20T08:29:04.335Z,7.93
2017-12-20T08:31:31.912Z,11.30
2017-12-20T08:33:59.394Z,10.77
2017-12-20T08:36:26.852Z,10.73
2017-12-20T08:38:54.447Z,9.17
2017-12-20T08:41:21.915Z,11.23
2017-12-20T08:43:49.389Z,10.13
2017-12-20T08:46:16.852Z,10.97
2017-12-20T08:48:44.375Z,9.30
2017-12-20T08:51:11.840Z,10.20
2017-12-20T08:53:39.312Z,11.87
2017-12-20T08:56:06.767Z,10.17
2017-12-20T08:58:34.235Z,8.93
2017-12-20T09:01:01.747Z,9.00
2017-12-20T09:03:29.985Z,9.80
2017-12-20T09:05:57.460Z,9.80
2017-12-20T09:08:24.945Z,9.23
2017-12-20T09:10:52.472Z,9.00
2017-12-20T09:13:19.946Z,7.17
2017-12-20T09:15:48.186Z,8.30
2017-12-20T09:18:15.655Z,8.10
2017-12-20T09:20:43.667Z,8.57
2017-12-20T09:23:11.187Z,10.00
2017-12-20T09:25:38.783Z,9.10
2017-12-20T09:28:06.932Z,8.90
2017-12-20T09:30:35.899Z,7.13
2017-12-20T09:33:03.367Z,9.83
2017-12-20T09:35:31.780Z,8.73
2017-12-20T09:37:59.405Z,7.60
2017-12-20T09:40:26.860Z,7.23
2017-12-20T09:42:55.191Z,9.93
2017-12-20T09:45:23.521Z,7.00
2017-12-20T09:47:51.900Z,8.03
2017-12-20T09:50:19.356Z,7.20
2017-12-20T09:52:46.823Z,8.13
2017-12-20T09:55:15.829Z,8.07
2017-12-20T09:57:44.083Z,7.90
2017-12-20T10:00:11.544Z,9.50
2017-12-20T10:02:39.043Z,8.80
2017-12-20T10:05:06.526Z,11.70
2017-12-20T10:07:34.859Z,11.03
2017-12-20T10:10:03.088Z,9.53
2017-12-20T10:12:31.373Z,11.47
2017-12-20T10:14:59.431Z,12.20
2017-12-20T10:17:27.105Z,13.17
2017-12-20T10:19:54.581Z,13.33
2017-12-20T10:22:22.986Z,11.60
2017-12-20T10:24:50.508Z,11.07
2017-12-20T10:27:18.791Z,8.67
2017-12-20T10:29:46.332Z,9.90
2017-12-20T10:32:14.536Z,8.10
2017-12-20T10:34:42.803Z,9.63
2017-12-20T10:37:11.033Z,8.90
2017-12-20T10:39:38.530Z,10.43
2017-12-20T10:42:05.998Z,10.67
2017-12-20T10:44:34.856Z,9.93
2017-12-20T10:47:02.316Z,7.60
2017-12-20T10:49:29.784Z,11.13
2017-12-20T10:51:57.240Z,9.20
2017-12-20T10:54:24.706Z,9.17
2017-12-20T10:56:53.004Z,10.60
2017-12-20T10:59:21.244Z,11.87
2017-12-20T11:01:48.707Z,11.87
2017-12-20T11:04:17.175Z,10.37
2017-12-20T11:06:45.491Z,10.87
2017-12-20T11:09:13.726Z,10.80
2017-12-20T11:11:41.366Z,11.90
2017-12-20T11:14:08.891Z,13.23
2017-12-20T11:16:36.446Z,12.83
2017-12-20T11:19:04.736Z,13.53
2017-12-20T11:21:32.195Z,11.23
2017-12-20T11:24:00.524Z,12.60
2017-12-20T11:26:27.988Z,13.43
2017-12-20T11:28:56.152Z,13.00
2017-12-20T11:31:23.623Z,14.23
2017-12-20T11:33:51.095Z,12.90
2017-12-20T11:36:21.159Z,13.33
2017-12-20T11:38:49.286Z,13.10
2017-12-20T11:41:18.020Z,12.57
2017-12-20T11:43:45.492Z,12.80
2017-12-20T11:46:13.706Z,12.10
2017-12-20T11:48:41.976Z,15.00
2017-12-20T11:51:10.208Z,14.20
2017-12-20T11:53:37.671Z,14.87
2017-12-20T11:56:05.159Z,14.07
2017-12-20T11:58:32.632Z,12.73
2017-12-20T12:01:00.092Z,12.97
2017-12-20T12:03:27.583Z,15.10
2017-12-20T12:05:55.048Z,12.80
2017-12-20T12:08:22.543Z,15.00
2017-12-20T12:10:50.778Z,11.67
2017-12-20T12:13:18.271Z,13.30
2017-12-20T12:15:45.735Z,12.00
2017-12-20T12:18:13.976Z,15.93
2017-12-20T12:20:41.455Z,16.20
2017-12-20T12:23:08.917Z,13.00
2017-12-20T12:25:36.383Z,13.60
2017-12-20T12:28:04.616Z,14.77
2017-12-20T12:30:32.115Z,13.43
2017-12-20T12:33:00.344Z,11.10
2017-12-20T12:35:27.825Z,13.87
2017-12-20T12:37:55.284Z,13.83
2017-12-20T12:40:22.766Z,13.63
2017-12-20T12:42:50.990Z,15.30
2017-12-20T12:45:18.464Z,12.43
2017-12-20T12:47:45.921Z,13.93
2017-12-20T12:50:13.395Z,14.57
2017-12-20T12:52:40.856Z,14.67
2017-12-20T12:55:08.753Z,11.30
2017-12-20T12:57:36.211Z,15.00
2017-12-20T13:00:03.688Z,15.70
2017-12-20T13:02:31.155Z,14.23
2017-12-20T13:04:58.636Z,13.50
2017-12-20T13:07:26.119Z,15.40
2017-12-20T13:09:54.347Z,13.87
2017-12-20T13:12:21.820Z,13.07
2017-12-20T13:14:49.328Z,15.20
2017-12-20T13:17:16.797Z,14.40
2017-12-20T13:19:44.259Z,13.67
2017-12-20T13:22:11.720Z,14.50
2017-12-20T13:24:39.216Z,12.53
2017-12-20T13:27:06.672Z,14.63
2017-12-20T13:29:34.171Z,14.57
2017-12-20T13:32:01.635Z,14.27
2017-12-20T13:34:29.104Z,15.90
2017-12-20T13:36:56.559Z,14.77
2017-12-20T13:39:24.035Z,16.20
2017-12-20T13:41:51.495Z,15.87
2017-12-20T13:44:18.967Z,15.03
2017-12-20T13:46:46.432Z,15.20
2017-12-20T13:49:13.907Z,17.03
2017-12-20T13:51:42.130Z,16.60
2017-12-20T13:54:09.638Z,14.80
2017-12-20T13:56:37.860Z,16.50
2017-12-20T13:59:05.339Z,16.83
2017-12-20T14:01:32.804Z,17.17
2017-12-20T14:04:00.275Z,16.23
2017-12-20T14:06:27.738Z,16.23
2017-12-20T14:08:55.975Z,17.83
2017-12-20T14:11:23.460Z,16.80
2017-12-20T14:13:50.939Z,14.63
2017-12-20T14:16:19.179Z,16.10
2017-12-20T14:18:46.647Z,16.67
2017-12-20T14:21:14.117Z,15.23
2017-12-20T14:23:42.359Z,15.23
2017-12-20T14:26:09.820Z,16.60
2017-12-20T14:28:37.287Z,17.47
2017-12-20T14:31:04.784Z,14.80
2017-12-20T14:33:32.968Z,14.13
2017-12-20T14:36:01.237Z,13.63
2017-12-20T14:38:28.746Z,13.67
2017-12-20T14:40:56.912Z,15.50
2017-12-20T14:43:24.372Z,15.30
2017-12-20T14:45:51.850Z,13.40
2017-12-20T14:48:20.128Z,15.83
2017-12-20T14:50:47.599Z,16.13
2017-12-20T14:53:15.823Z,14.07
2017-12-20T14:55:43.317Z,15.73
2017-12-20T14:58:10.789Z,14.47
2017-12-20T15:00:39.031Z,14.60
2017-12-20T15:03:06.496Z,14.37
2017-12-20T15:05:33.980Z,17.50
2017-12-20T15:08:02.208Z,15.30
2017-12-20T15:10:29.823Z,12.83
2017-12-20T15:12:57.324Z,15.37
2017-12-20T15:15:24.790Z,15.97
2017-12-20T15:17:52.254Z,16.80
2017-12-20T15:20:19.728Z,14.80
2017-12-20T15:22:47.195Z,13.10
2017-12-20T15:25:15.435Z,15.33
2017-12-20T15:27:42.931Z,14.47
2017-12-20T15:30:11.211Z,12.17
2017-12-20T15:32:39.508Z,14.37
2017-12-20T15:35:07.001Z,13.53
2017-12-20T15:37:34.476Z,14.57
2017-12-20T15:40:01.953Z,14.70
2017-12-20T15:42:30.208Z,14.10
2017-12-20T15:44:58.533Z,14.27
2017-12-20T15:47:26.005Z,15.00
2017-12-20T15:49:53.475Z,14.37
2017-12-20T15:52:20.936Z,15.93
2017-12-20T15:54:48.408Z,14.17
2017-12-20T15:57:15.864Z,15.40
2017-12-20T15:59:43.357Z,14.90
2017-12-20T16:02:11.584Z,14.80
2017-12-20T16:04:39.056Z,14.70
2017-12-20T16:07:06.516Z,14.57
2017-12-20T16:09:34.004Z,14.20
2017-12-20T16:12:01.469Z,16.43
2017-12-20T16:14:28.939Z,15.20
2017-12-20T16:16:56.402Z,17.07
2017-12-20T16:19:23.876Z,16.70
2017-12-20T16:21:51.337Z,16.70
2017-12-20T16:24:18.796Z,17.10
2017-12-20T16:26:46.271Z,17.60
2017-12-20T16:29:13.741Z,16.63
2017-12-20T16:31:41.981Z,17.10
2017-12-20T16:34:09.446Z,14.60
2017-12-20T16:36:36.960Z,17.97
2017-12-20T16:39:04.428Z,17.93
2017-12-20T16:41:31.896Z,21.27
2017-12-20T16:43:59.396Z,16.63
2017-12-20T16:46:26.859Z,15.47
2017-12-20T16:48:55.091Z,14.27
2017-12-20T16:51:22.574Z,17.63
2017-12-20T16:53:50.027Z,16.40
2017-12-20T16:56:17.661Z,17.63
2017-12-20T16:58:45.823Z,16.80
2017-12-20T17:01:13.361Z,17.30
2017-12-20T17:03:40.820Z,18.60
2017-12-20T17:06:09.110Z,16.60
2017-12-20T17:08:36.566Z,13.60
2017-12-20T17:11:04.748Z,18.80
2017-12-20T17:13:39.019Z,17.07
2017-12-20T17:16:07.883Z,16.33
2017-12-20T17:18:35.343Z,16.27
2017-12-20T17:21:02.820Z,17.27
2017-12-20T17:23:30.284Z,16.77
2017-12-20T17:25:58.532Z,17.20
2017-12-20T17:28:26.786Z,17.20
2017-12-20T17:30:54.263Z,16.87
2017-12-20T17:33:21.732Z,18.40
2017-12-20T17:35:49.199Z,16.20
2017-12-20T17:38:17.428Z,14.53
2017-12-20T17:40:44.899Z,20.37
2017-12-20T17:43:12.412Z,16.13
2017-12-20T17:45:41.316Z,18.27
2017-12-20T17:48:09.074Z,16.67
2017-12-20T17:50:39.339Z,16.00
2017-12-20T17:53:06.860Z,21.60
2017-12-20T17:55:35.511Z,16.60
2017-12-20T17:58:04.567Z,18.30
2017-12-20T18:00:32.040Z,20.83
2017-12-20T18:02:59.495Z,13.97
2017-12-20T18:05:27.070Z,18.00
2017-12-20T18:07:55.451Z,16.30
2017-12-20T18:10:22.940Z,17.60
2017-12-20T18:12:50.400Z,18.57
2017-12-20T18:15:17.864Z,19.50
2017-12-20T18:17:45.352Z,18.10
2017-12-20T18:20:12.825Z,19.67
2017-12-20T18:22:40.283Z,19.20
2017-12-20T18:25:07.789Z,16.60
2017-12-20T18:27:35.248Z,18.47
2017-12-20T18:30:02.748Z,19.13
2017-12-20T18:32:30.215Z,18.07
2017-12-20T18:34:57.680Z,18.63
2017-12-20T18:37:25.172Z,18.90
2017-12-20T18:39:52.638Z,17.53
2017-12-20T18:42:20.120Z,18.00
2017-12-20T18:44:47.600Z,19.67
2017-12-20T18:47:15.076Z,15.57
2017-12-20T18:49:43.328Z,16.70
2017-12-20T18:52:10.831Z,19.50
2017-12-20T18:54:38.291Z,15.70
2017-12-20T18:57:05.861Z,16.50
2017-12-20T18:59:33.308Z,13.37
2017-12-20T19:02:00.783Z,16.67
2017-12-20T19:04:28.270Z,16.77
2017-12-20T19:06:55.739Z,17.57
2017-12-20T19:09:24.500Z,13.50
2017-12-20T19:11:51.976Z,14.67
2017-12-20T19:14:22.208Z,13.83
2017-12-20T19:16:49.684Z,15.17
2017-12-20T19:19:17.904Z,16.20
2017-12-20T19:21:45.376Z,13.50
2017-12-20T19:24:13.043Z,15.47
2017-12-20T19:26:40.516Z,16.20
2017-12-20T19:29:08.081Z,14.37
2017-12-20T19:31:35.554Z,14.17
2017-12-20T19:34:03.783Z,15.93
2017-12-20T19:36:31.256Z,15.10
2017-12-20T19:38:58.754Z,14.63
2017-12-20T19:41:26.291Z,13.33
2017-12-20T19:43:57.392Z,13.43
2017-12-20T19:46:24.868Z,12.93
2017-12-20T19:48:53.051Z,10.97
2017-12-20T19:51:27.431Z,12.53
2017-12-20T19:53:54.900Z,14.30
2017-12-20T19:56:29.223Z,13.57
2017-12-20T19:58:59.380Z,14.40
2017-12-20T20:01:28.496Z,14.17
2017-12-20T20:03:56.047Z,16.43
2017-12-20T20:06:24.284Z,12.60
2017-12-20T20:08:51.743Z,17.00
2017-12-20T20:11:19.218Z,13.97
2017-12-20T20:13:47.448Z,16.40
2017-12-20T20:16:14.944Z,15.37
2017-12-20T20:18:42.404Z,14.07
2017-12-20T20:21:09.875Z,14.47
2017-12-20T20:23:38.103Z,15.57
2017-12-20T20:26:05.585Z,15.70
2017-12-20T20:28:33.048Z,12.93
2017-12-20T20:31:00.519Z,12.20
2017-12-20T20:33:28.755Z,12.40
2017-12-20T20:35:56.227Z,16.53
2017-12-20T20:38:23.686Z,13.50
2017-12-20T20:40:51.164Z,11.63
2017-12-20T20:43:19.391Z,12.23
2017-12-20T20:45:46.856Z,13.10
2017-12-20T20:48:14.332Z,13.30
2017-12-20T20:50:41.792Z,14.23
2017-12-20T20:53:09.264Z,13.97
2017-12-20T20:55:37.488Z,15.67
2017-12-20T20:58:04.960Z,12.47
2017-12-20T21:00:32.427Z,15.10
2017-12-20T21:02:59.899Z,15.60
2017-12-20T21:05:27.382Z,15.10
2017-12-20T21:07:54.860Z,18.10
2017-12-20T21:10:23.042Z,14.87
2017-12-20T21:12:50.552Z,15.23
2017-12-20T21:15:19.567Z,14.50
2017-12-20T21:17:47.112Z,15.57
2017-12-20T21:20:15.339Z,12.80
2017-12-20T21:22:43.707Z,17.20
2017-12-20T21:25:11.172Z,13.90
2017-12-20T21:27:38.643Z,15.07
2017-12-20T21:30:06.105Z,13.07
2017-12-20T21:32:34.424Z,12.87
2017-12-20T21:35:02.720Z,14.90
2017-12-20T21:37:30.188Z,15.27
2017-12-20T21:39:57.652Z,13.60
2017-12-20T21:42:25.143Z,14.63
2017-12-20T21:44:53.427Z,14.67
2017-12-20T21:47:21.672Z,18.40
2017-12-20T21:49:49.128Z,13.10
2017-12-20T21:52:16.608Z,14.30
2017-12-20T21:54:44.068Z,12.70
2017-12-20T21:57:11.540Z,11.17
2017-12-20T21:59:39.767Z,13.37
2017-12-20T22:02:07.323Z,12.50
2017-12-20T22:04:34.788Z,14.50
2017-12-20T22:07:03.133Z,11.43
2017-12-20T22:09:30.664Z,13.10
2017-12-20T22:12:06.473Z,13.47
2017-12-20T22:14:33.931Z,13.20
2017-12-20T22:17:01.472Z,14.10
2017-12-20T22:19:28.995Z,15.63
2017-12-20T22:21:58.059Z,15.10
2017-12-20T22:24:25.518Z,15.40
2017-12-20T22:26:52.988Z,13.63
2017-12-20T22:29:20.463Z,14.50
2017-12-20T22:31:48.700Z,17.77
2017-12-20T22:34:16.992Z,14.53
2017-12-20T22:36:44.470Z,14.47
2017-12-20T22:39:12.692Z,16.77
2017-12-20T22:41:40.263Z,13.40
2017-12-20T22:44:08.511Z,13.50
2017-12-20T22:46:35.991Z,13.77
2017-12-20T22:49:03.518Z,14.77
2017-12-20T22:51:31.028Z,14.30
2017-12-20T22:53:58.499Z,14.03
2017-12-20T22:56:26.742Z,15.17
2017-12-20T22:58:54.214Z,13.20
2017-12-20T23:01:21.677Z,14.30
2017-12-20T23:03:49.144Z,14.33
2017-12-20T23:06:16.603Z,15.30
2017-12-20T23:08:44.841Z,14.37
2017-12-20T23:11:13.002Z,13.63
2017-12-20T23:13:40.481Z,13.70
2017-12-20T23:16:07.946Z,14.00
2017-12-20T23:18:35.428Z,13.07
2017-12-20T23:21:03.657Z,14.50
2017-12-20T23:23:31.127Z,14.70
2017-12-20T23:25:58.600Z,13.60
2017-12-20T23:28:26.072Z,10.47
2017-12-20T23:30:54.300Z,12.90
2017-12-20T23:33:21.807Z,13.50
2017-12-20T23:35:50.032Z,10.10
2017-12-20T23:38:17.504Z,11.53
2017-12-20T23:40:45.951Z,11.40
2017-12-20T23:43:13.412Z,10.27
2017-12-20T23:45:40.875Z,12.97
2017-12-20T23:48:08.344Z,13.30
2017-12-20T23:50:35.838Z,14.07
2017-12-20T23:53:04.080Z,13.27
2017-12-20T23:55:31.630Z,13.00
2017-12-20T23:58:00.096Z,11.37
